PWSweather.com
Personal Weather Stations
Station Observations
KWIPARKF
Flambeau River State Forest, Park Falls, WI 54552

Flambeau River State ForestPark Falls, WI 54552

Lat: 45.81943, Lon: -90.61676

Elevation: 1476

Station Type: Davis Vantage Pro2 Plus

www.flambeauforestweather.com

High Low Average
Temperature 28.4°F-2.0°C 14.0°F-10.0°C 21.6°F-5.8°C
Dew Point 26.1°F-3.3°C 9.8°F-12.3°C 16.7°F-8.5°C
Winds 3.5 mph 5.6 kmh Calm Calm Calm WCalm W
Wind Gusts 12.7 mph20.4 kmh -- --
Humidity 91% 66% 81%
Pressure 30.39 in1029.1 mb 30.15 in1021.0 mb -
Precipitation 0.01 in0.3 mm - -
Hour Temp Dew Point Humidity Winds Wind Gusts Pressure Precip Precip Rate Daily Precip Total
12:00 AM 28.4°F-2.0°C 26.1°F-3.3°C 91% 3.5 mph N5.6 kmh N 10.4 mph16.7 kmh 30.15 in1021.0 mb - 0.00 in0.0 mm 0.00 in0.0 mm
12:10 AM 28.4°F-2.0°C 26.1°F-3.3°C 91% Calm Calm -- 30.15 in1021.0 mb - 0.00 in0.0 mm 0.00 in0.0 mm
12:20 AM 28.3°F-2.1°C 26.0°F-3.3°C 91% Calm Calm 2.3 mph3.7 kmh 30.16 in1021.3 mb - 0.00 in0.0 mm 0.00 in0.0 mm
12:30 AM 28.3°F-2.1°C 25.7°F-3.5°C 90% Calm Calm -- 30.16 in1021.3 mb - 0.00 in0.0 mm 0.00 in0.0 mm
12:40 AM 28.3°F-2.1°C 25.7°F-3.5°C 90% Calm Calm -- 30.16 in1021.3 mb - 0.00 in0.0 mm 0.00 in0.0 mm
12:50 AM 28.2°F-2.1°C 25.6°F-3.6°C 90% Calm Calm -- 30.17 in1021.7 mb - 0.00 in0.0 mm 0.00 in0.0 mm
01:00 AM 28.2°F-2.1°C 25.4°F-3.7°C 89% Calm Calm -- 30.17 in1021.7 mb - 0.00 in0.0 mm 0.00 in0.0 mm
01:10 AM 28.1°F-2.2°C 25.3°F-3.7°C 89% Calm Calm -- 30.18 in1022.0 mb - 0.00 in0.0 mm 0.00 in0.0 mm
01:20 AM 28.1°F-2.2°C 25.3°F-3.7°C 89% Calm Calm -- 30.19 in1022.4 mb - 0.00 in0.0 mm 0.00 in0.0 mm
01:30 AM 28.0°F-2.2°C 24.9°F-3.9°C 88% Calm Calm 1.2 mph1.9 kmh 30.19 in1022.4 mb - 0.00 in0.0 mm 0.00 in0.0 mm
01:40 AM 28.0°F-2.2°C 24.6°F-4.1°C 87% Calm Calm 1.2 mph1.9 kmh 30.19 in1022.4 mb - 0.00 in0.0 mm 0.00 in0.0 mm
01:50 AM 28.0°F-2.2°C 24.6°F-4.1°C 87% Calm Calm -- 30.20 in1022.7 mb - 0.00 in0.0 mm 0.00 in0.0 mm
02:00 AM 28.0°F-2.2°C 24.4°F-4.2°C 86% Calm Calm -- 30.20 in1022.7 mb - 0.00 in0.0 mm 0.00 in0.0 mm
02:10 AM 27.9°F-2.3°C 24.3°F-4.3°C 86% Calm Calm -- 30.20 in1022.7 mb - 0.00 in0.0 mm 0.00 in0.0 mm
02:20 AM 27.9°F-2.3°C 24.3°F-4.3°C 86% Calm Calm -- 30.21 in1023.0 mb - 0.00 in0.0 mm 0.00 in0.0 mm
02:30 AM 27.8°F-2.3°C 24.2°F-4.3°C 86% Calm Calm -- 30.22 in1023.4 mb - 0.00 in0.0 mm 0.00 in0.0 mm
02:40 AM 27.8°F-2.3°C 24.4°F-4.2°C 87% Calm Calm -- 30.22 in1023.4 mb - 0.00 in0.0 mm 0.00 in0.0 mm
02:50 AM 27.6°F-2.4°C 23.7°F-4.6°C 85% Calm Calm 9.2 mph14.8 kmh 30.22 in1023.4 mb - 0.00 in0.0 mm 0.00 in0.0 mm
03:00 AM 27.3°F-2.6°C 22.8°F-5.1°C 83% Calm Calm 2.3 mph3.7 kmh 30.23 in1023.7 mb - 0.00 in0.0 mm 0.00 in0.0 mm
03:10 AM 26.9°F-2.8°C 22.1°F-5.5°C 82% Calm Calm 1.2 mph1.9 kmh 30.23 in1023.7 mb - 0.00 in0.0 mm 0.00 in0.0 mm
03:20 AM 26.6°F-3.0°C 21.8°F-5.7°C 82% Calm Calm 1.2 mph1.9 kmh 30.24 in1024.0 mb - 0.00 in0.0 mm 0.00 in0.0 mm
03:30 AM 26.5°F-3.1°C 22.0°F-5.6°C 83% 1.2 mph NNW1.9 kmh NNW 5.8 mph9.3 kmh 30.24 in1024.0 mb - 0.00 in0.0 mm 0.00 in0.0 mm
03:40 AM 26.4°F-3.1°C 21.9°F-5.6°C 83% Calm Calm -- 30.24 in1024.0 mb - 0.00 in0.0 mm 0.00 in0.0 mm
03:50 AM 26.3°F-3.2°C 22.1°F-5.5°C 84% Calm Calm -- 30.24 in1024.0 mb - 0.00 in0.0 mm 0.00 in0.0 mm
04:00 AM 26.2°F-3.2°C 22.0°F-5.6°C 84% Calm Calm -- 30.24 in1024.0 mb - 0.00 in0.0 mm 0.00 in0.0 mm
04:10 AM 26.1°F-3.3°C 21.9°F-5.6°C 84% Calm Calm -- 30.25 in1024.4 mb - 0.00 in0.0 mm 0.00 in0.0 mm
04:20 AM 26.0°F-3.3°C 21.8°F-5.7°C 84% Calm Calm -- 30.25 in1024.4 mb - 0.00 in0.0 mm 0.00 in0.0 mm
04:30 AM 25.8°F-3.4°C 21.7°F-5.7°C 84% Calm Calm 2.3 mph3.7 kmh 30.25 in1024.4 mb - 0.00 in0.0 mm 0.00 in0.0 mm
04:40 AM 25.7°F-3.5°C 21.8°F-5.7°C 85% Calm Calm 1.2 mph1.9 kmh 30.25 in1024.4 mb - 0.00 in0.0 mm 0.00 in0.0 mm
04:50 AM 25.3°F-3.7°C 20.6°F-6.3°C 82% Calm Calm -- 30.26 in1024.7 mb - 0.00 in0.0 mm 0.00 in0.0 mm
05:00 AM 24.9°F-3.9°C 20.2°F-6.6°C 82% Calm Calm 12.7 mph20.4 kmh 30.26 in1024.7 mb - 0.00 in0.0 mm 0.00 in0.0 mm
05:10 AM 24.5°F-4.2°C 19.8°F-6.8°C 82% Calm Calm -- 30.27 in1025.1 mb - 0.00 in0.0 mm 0.00 in0.0 mm
05:20 AM 24.2°F-4.3°C 19.8°F-6.8°C 83% Calm Calm 4.6 mph7.4 kmh 30.27 in1025.1 mb - 0.00 in0.0 mm 0.00 in0.0 mm
05:30 AM 24.0°F-4.4°C 19.6°F-6.9°C 83% Calm Calm 1.2 mph1.9 kmh 30.27 in1025.1 mb - 0.00 in0.0 mm 0.00 in0.0 mm
05:40 AM 23.7°F-4.6°C 19.3°F-7.1°C 83% 1.2 mph NW1.9 kmh NW -- 30.28 in1025.4 mb - 0.00 in0.0 mm 0.00 in0.0 mm
05:50 AM 23.4°F-4.8°C 19.0°F-7.2°C 83% Calm Calm 5.8 mph9.3 kmh 30.28 in1025.4 mb - 0.00 in0.0 mm 0.00 in0.0 mm
06:00 AM 23.1°F-4.9°C 18.7°F-7.4°C 83% Calm Calm 1.2 mph1.9 kmh 30.29 in1025.7 mb - 0.00 in0.0 mm 0.00 in0.0 mm
06:10 AM 22.8°F-5.1°C 18.4°F-7.6°C 83% Calm Calm 3.5 mph5.6 kmh 30.30 in1026.1 mb - 0.00 in0.0 mm 0.00 in0.0 mm
06:20 AM 22.6°F-5.2°C 18.2°F-7.7°C 83% Calm Calm -- 30.30 in1026.1 mb - 0.00 in0.0 mm 0.00 in0.0 mm
06:30 AM 22.4°F-5.3°C 18.0°F-7.8°C 83% Calm Calm -- 30.30 in1026.1 mb - 0.00 in0.0 mm 0.00 in0.0 mm
06:40 AM 22.3°F-5.4°C 17.9°F-7.8°C 83% Calm Calm -- 30.31 in1026.4 mb - 0.00 in0.0 mm 0.00 in0.0 mm
06:50 AM 22.1°F-5.5°C 18.0°F-7.8°C 84% Calm Calm -- 30.31 in1026.4 mb - 0.00 in0.0 mm 0.00 in0.0 mm
07:00 AM 21.9°F-5.6°C 17.5°F-8.1°C 83% Calm Calm -- 30.32 in1026.8 mb - 0.00 in0.0 mm 0.00 in0.0 mm
07:10 AM 21.7°F-5.7°C 17.3°F-8.2°C 83% Calm Calm -- 30.32 in1026.8 mb - 0.00 in0.0 mm 0.00 in0.0 mm
07:20 AM 21.6°F-5.8°C 17.2°F-8.2°C 83% Calm Calm -- 30.32 in1026.8 mb - 0.00 in0.0 mm 0.00 in0.0 mm
07:30 AM 21.5°F-5.8°C 17.4°F-8.1°C 84% Calm Calm -- 30.32 in1026.8 mb - 0.00 in0.0 mm 0.00 in0.0 mm
07:40 AM 21.5°F-5.8°C 17.4°F-8.1°C 84% Calm Calm -- 30.33 in1027.1 mb - 0.00 in0.0 mm 0.00 in0.0 mm
07:50 AM 21.4°F-5.9°C 17.6°F-8.0°C 85% Calm Calm -- 30.33 in1027.1 mb - 0.00 in0.0 mm 0.00 in0.0 mm
08:00 AM 21.4°F-5.9°C 17.6°F-8.0°C 85% Calm Calm -- 30.33 in1027.1 mb - 0.00 in0.0 mm 0.00 in0.0 mm
08:10 AM 21.3°F-5.9°C 17.2°F-8.2°C 84% Calm Calm -- 30.34 in1027.4 mb - 0.00 in0.0 mm 0.00 in0.0 mm
08:20 AM 21.2°F-6.0°C 17.1°F-8.3°C 84% Calm Calm -- 30.34 in1027.4 mb - 0.00 in0.0 mm 0.00 in0.0 mm
08:30 AM 20.9°F-6.2°C 16.6°F-8.6°C 83% Calm Calm 1.2 mph1.9 kmh 30.35 in1027.8 mb - 0.00 in0.0 mm 0.00 in0.0 mm
08:40 AM 20.8°F-6.2°C 16.4°F-8.7°C 83% Calm Calm -- 30.35 in1027.8 mb - 0.00 in0.0 mm 0.00 in0.0 mm
08:50 AM 20.7°F-6.3°C 16.4°F-8.7°C 83% Calm Calm -- 30.35 in1027.8 mb - 0.00 in0.0 mm 0.00 in0.0 mm
09:00 AM 20.6°F-6.3°C 16.3°F-8.7°C 83% Calm Calm -- 30.36 in1028.1 mb - 0.00 in0.0 mm 0.00 in0.0 mm
09:10 AM 20.6°F-6.3°C 16.0°F-8.9°C 82% Calm Calm -- 30.36 in1028.1 mb - 0.00 in0.0 mm 0.00 in0.0 mm
09:20 AM 20.4°F-6.4°C 15.8°F-9.0°C 82% Calm Calm -- 30.37 in1028.4 mb - 0.00 in0.0 mm 0.00 in0.0 mm
09:30 AM 20.2°F-6.6°C 15.3°F-9.3°C 81% Calm Calm -- 30.37 in1028.4 mb - 0.00 in0.0 mm 0.00 in0.0 mm
09:40 AM 20.3°F-6.5°C 15.4°F-9.2°C 81% Calm Calm -- 30.37 in1028.4 mb - 0.00 in0.0 mm 0.00 in0.0 mm
09:50 AM 20.2°F-6.6°C 15.0°F-9.4°C 80% Calm Calm -- 30.38 in1028.8 mb - 0.00 in0.0 mm 0.00 in0.0 mm
10:00 AM 19.8°F-6.8°C 14.9°F-9.5°C 81% Calm Calm -- 30.38 in1028.8 mb - 0.00 in0.0 mm 0.00 in0.0 mm
10:10 AM 19.8°F-6.8°C 15.2°F-9.3°C 82% Calm Calm -- 30.39 in1029.1 mb - 0.00 in0.0 mm 0.00 in0.0 mm
10:20 AM 20.0°F-6.7°C 15.1°F-9.4°C 81% Calm Calm -- 30.39 in1029.1 mb - 0.00 in0.0 mm 0.00 in0.0 mm
10:30 AM 20.3°F-6.5°C 15.1°F-9.4°C 80% Calm Calm -- 30.39 in1029.1 mb - 0.00 in0.0 mm 0.00 in0.0 mm
10:40 AM 20.5°F-6.4°C 15.3°F-9.3°C 80% Calm Calm -- 30.39 in1029.1 mb - 0.00 in0.0 mm 0.00 in0.0 mm
10:50 AM 20.6°F-6.3°C 15.4°F-9.2°C 80% Calm Calm -- 30.39 in1029.1 mb - 0.00 in0.0 mm 0.00 in0.0 mm
11:00 AM 21.0°F-6.1°C 15.2°F-9.3°C 78% Calm Calm -- 30.38 in1028.8 mb - 0.00 in0.0 mm 0.00 in0.0 mm
11:10 AM 21.3°F-5.9°C 15.5°F-9.2°C 78% Calm Calm -- 30.39 in1029.1 mb - 0.00 in0.0 mm 0.00 in0.0 mm
11:20 AM 21.9°F-5.6°C 16.1°F-8.8°C 78% Calm Calm -- 30.39 in1029.1 mb - 0.00 in0.0 mm 0.00 in0.0 mm
11:30 AM 22.1°F-5.5°C 15.7°F-9.1°C 76% Calm Calm -- 30.39 in1029.1 mb - 0.00 in0.0 mm 0.00 in0.0 mm
11:40 AM 22.3°F-5.4°C 15.9°F-8.9°C 76% Calm Calm -- 30.39 in1029.1 mb - 0.00 in0.0 mm 0.00 in0.0 mm
11:50 AM 22.7°F-5.2°C 16.0°F-8.9°C 75% Calm Calm -- 30.38 in1028.8 mb - 0.00 in0.0 mm 0.00 in0.0 mm
12:00 PM 23.4°F-4.8°C 16.3°F-8.7°C 74% Calm Calm -- 30.38 in1028.8 mb - 0.00 in0.0 mm 0.00 in0.0 mm
12:10 PM 22.7°F-5.2°C 15.7°F-9.1°C 74% Calm Calm -- 30.38 in1028.8 mb - 0.00 in0.0 mm 0.00 in0.0 mm
12:20 PM 23.2°F-4.9°C 15.8°F-9.0°C 73% Calm Calm -- 30.38 in1028.8 mb - 0.00 in0.0 mm 0.00 in0.0 mm
12:30 PM 23.5°F-4.7°C 16.1°F-8.8°C 73% Calm Calm -- 30.38 in1028.8 mb - 0.00 in0.0 mm 0.00 in0.0 mm
12:40 PM 23.6°F-4.7°C 15.9°F-8.9°C 72% Calm Calm -- 30.38 in1028.8 mb - 0.00 in0.0 mm 0.00 in0.0 mm
12:50 PM 23.6°F-4.7°C 15.6°F-9.1°C 71% 1.2 mph WNW1.9 kmh WNW 3.5 mph5.6 kmh 30.37 in1028.4 mb - 0.00 in0.0 mm 0.00 in0.0 mm
01:00 PM 24.4°F-4.2°C 16.0°F-8.9°C 70% Calm Calm -- 30.37 in1028.4 mb - 0.00 in0.0 mm 0.00 in0.0 mm
01:10 PM 24.4°F-4.2°C 16.0°F-8.9°C 70% Calm Calm -- 30.37 in1028.4 mb - 0.00 in0.0 mm 0.00 in0.0 mm
01:20 PM 24.8°F-4.0°C 16.4°F-8.7°C 70% Calm Calm -- 30.37 in1028.4 mb - 0.00 in0.0 mm 0.00 in0.0 mm
01:30 PM 25.1°F-3.8°C 17.3°F-8.2°C 72% Calm Calm -- 30.37 in1028.4 mb - 0.00 in0.0 mm 0.00 in0.0 mm
01:40 PM 25.2°F-3.8°C 16.1°F-8.8°C 68% Calm Calm -- 30.37 in1028.4 mb - 0.00 in0.0 mm 0.00 in0.0 mm
01:50 PM 25.0°F-3.9°C 15.2°F-9.3°C 66% Calm Calm -- 30.37 in1028.4 mb - 0.00 in0.0 mm 0.00 in0.0 mm
02:00 PM 24.9°F-3.9°C 15.5°F-9.2°C 67% Calm Calm -- 30.37 in1028.4 mb - 0.00 in0.0 mm 0.00 in0.0 mm
02:10 PM 25.0°F-3.9°C 16.3°F-8.7°C 69% Calm Calm -- 30.37 in1028.4 mb - 0.01 in0.3 mm 0.01 in0.3 mm
02:20 PM 25.5°F-3.6°C 16.1°F-8.8°C 67% Calm Calm -- 30.38 in1028.8 mb - 0.01 in0.3 mm 0.01 in0.3 mm
02:30 PM 25.1°F-3.8°C 15.3°F-9.3°C 66% Calm Calm -- 30.38 in1028.8 mb - 0.01 in0.3 mm 0.01 in0.3 mm
02:40 PM 25.2°F-3.8°C 16.5°F-8.6°C 69% Calm Calm -- 30.38 in1028.8 mb - 0.01 in0.3 mm 0.01 in0.3 mm
02:50 PM 25.3°F-3.7°C 16.2°F-8.8°C 68% Calm Calm -- 30.38 in1028.8 mb - 0.01 in0.3 mm 0.01 in0.3 mm
03:00 PM 24.8°F-4.0°C 15.4°F-9.2°C 67% Calm Calm -- 30.38 in1028.8 mb - 0.01 in0.3 mm 0.01 in0.3 mm
03:10 PM 24.5°F-4.2°C 15.4°F-9.2°C 68% Calm Calm -- 30.38 in1028.8 mb - 0.00 in0.0 mm 0.01 in0.3 mm
03:20 PM 24.0°F-4.4°C 15.3°F-9.3°C 69% Calm Calm -- 30.38 in1028.8 mb - 0.00 in0.0 mm 0.01 in0.3 mm
03:30 PM 23.5°F-4.7°C 15.1°F-9.4°C 70% Calm Calm -- 30.39 in1029.1 mb - 0.00 in0.0 mm 0.01 in0.3 mm
03:40 PM 23.3°F-4.8°C 14.6°F-9.7°C 69% Calm Calm -- 30.39 in1029.1 mb - 0.00 in0.0 mm 0.01 in0.3 mm
03:50 PM 22.8°F-5.1°C 14.8°F-9.6°C 71% Calm Calm -- 30.39 in1029.1 mb - 0.00 in0.0 mm 0.01 in0.3 mm
04:00 PM 22.4°F-5.3°C 14.7°F-9.6°C 72% Calm Calm -- 30.39 in1029.1 mb - 0.00 in0.0 mm 0.01 in0.3 mm
04:10 PM 22.0°F-5.6°C 14.4°F-9.8°C 72% Calm Calm -- 30.39 in1029.1 mb - 0.00 in0.0 mm 0.01 in0.3 mm
04:20 PM 21.8°F-5.7°C 14.2°F-9.9°C 72% Calm Calm -- 30.39 in1029.1 mb - 0.00 in0.0 mm 0.01 in0.3 mm
04:30 PM 21.5°F-5.8°C 14.2°F-9.9°C 73% Calm Calm -- 30.39 in1029.1 mb - 0.00 in0.0 mm 0.01 in0.3 mm
04:40 PM 20.9°F-6.2°C 13.6°F-10.2°C 73% Calm Calm -- 30.39 in1029.1 mb - 0.00 in0.0 mm 0.01 in0.3 mm
04:50 PM 20.2°F-6.6°C 13.2°F-10.4°C 74% Calm Calm -- 30.39 in1029.1 mb - 0.00 in0.0 mm 0.01 in0.3 mm
05:00 PM 19.3°F-7.1°C 12.6°F-10.8°C 75% Calm Calm -- 30.38 in1028.8 mb - 0.00 in0.0 mm 0.01 in0.3 mm
05:10 PM 18.5°F-7.5°C 12.2°F-11.0°C 76% Calm Calm -- 30.39 in1029.1 mb - 0.00 in0.0 mm 0.01 in0.3 mm
05:20 PM 17.7°F-7.9°C 11.7°F-11.3°C 77% Calm Calm -- 30.38 in1028.8 mb - 0.00 in0.0 mm 0.01 in0.3 mm
05:30 PM 16.8°F-8.4°C 11.2°F-11.6°C 78% Calm Calm -- 30.38 in1028.8 mb - 0.00 in0.0 mm 0.01 in0.3 mm
05:40 PM 16.0°F-8.9°C 10.7°F-11.8°C 79% Calm Calm -- 30.39 in1029.1 mb - 0.00 in0.0 mm 0.01 in0.3 mm
05:50 PM 15.5°F-9.2°C 10.4°F-12.0°C 80% Calm Calm -- 30.38 in1028.8 mb - 0.00 in0.0 mm 0.01 in0.3 mm
06:00 PM 15.1°F-9.4°C 10.3°F-12.1°C 81% Calm Calm -- 30.39 in1029.1 mb - 0.00 in0.0 mm 0.01 in0.3 mm
06:10 PM 14.5°F-9.7°C 10.0°F-12.2°C 82% Calm Calm -- 30.38 in1028.8 mb - 0.00 in0.0 mm 0.01 in0.3 mm
06:20 PM 14.5°F-9.7°C 10.3°F-12.1°C 83% Calm Calm -- 30.38 in1028.8 mb - 0.00 in0.0 mm 0.01 in0.3 mm
06:30 PM 14.3°F-9.8°C 10.1°F-12.2°C 83% Calm Calm -- 30.39 in1029.1 mb - 0.00 in0.0 mm 0.01 in0.3 mm
06:40 PM 14.0°F-10.0°C 9.8°F-12.3°C 83% Calm Calm -- 30.39 in1029.1 mb - 0.00 in0.0 mm 0.01 in0.3 mm
06:50 PM 14.0°F-10.0°C 10.3°F-12.1°C 85% Calm Calm -- 30.39 in1029.1 mb - 0.00 in0.0 mm 0.01 in0.3 mm
07:00 PM 14.4°F-9.8°C 11.0°F-11.7°C 86% Calm Calm -- 30.39 in1029.1 mb - 0.00 in0.0 mm 0.01 in0.3 mm
07:10 PM 14.8°F-9.6°C 11.6°F-11.3°C 87% Calm Calm -- 30.39 in1029.1 mb - 0.00 in0.0 mm 0.01 in0.3 mm
07:20 PM 15.2°F-9.3°C 12.0°F-11.1°C 87% Calm Calm -- 30.39 in1029.1 mb - 0.00 in0.0 mm 0.01 in0.3 mm
07:30 PM 15.4°F-9.2°C 12.0°F-11.1°C 86% Calm Calm -- 30.39 in1029.1 mb - 0.00 in0.0 mm 0.01 in0.3 mm
07:40 PM 15.5°F-9.2°C 12.1°F-11.1°C 86% Calm Calm -- 30.39 in1029.1 mb - 0.00 in0.0 mm 0.01 in0.3 mm
07:50 PM 15.4°F-9.2°C 11.7°F-11.3°C 85% Calm Calm -- 30.38 in1028.8 mb - 0.00 in0.0 mm 0.01 in0.3 mm
08:00 PM 15.4°F-9.2°C 11.7°F-11.3°C 85% Calm Calm -- 30.38 in1028.8 mb - 0.00 in0.0 mm 0.01 in0.3 mm
08:10 PM 15.3°F-9.3°C 11.6°F-11.3°C 85% Calm Calm -- 30.38 in1028.8 mb - 0.00 in0.0 mm 0.01 in0.3 mm
08:20 PM 15.2°F-9.3°C 11.5°F-11.4°C 85% Calm Calm -- 30.38 in1028.8 mb - 0.00 in0.0 mm 0.01 in0.3 mm
08:30 PM 15.0°F-9.4°C 11.3°F-11.5°C 85% Calm Calm -- 30.38 in1028.8 mb - 0.00 in0.0 mm 0.01 in0.3 mm
08:40 PM 14.9°F-9.5°C 11.5°F-11.4°C 86% Calm Calm -- 30.38 in1028.8 mb - 0.00 in0.0 mm 0.01 in0.3 mm
08:50 PM 14.6°F-9.7°C 11.2°F-11.6°C 86% Calm Calm -- 30.38 in1028.8 mb - 0.00 in0.0 mm 0.01 in0.3 mm
09:00 PM 14.6°F-9.7°C 11.4°F-11.4°C 87% Calm Calm -- 30.38 in1028.8 mb - 0.00 in0.0 mm 0.01 in0.3 mm
09:10 PM 14.7°F-9.6°C 11.5°F-11.4°C 87% Calm Calm -- 30.38 in1028.8 mb - 0.00 in0.0 mm 0.01 in0.3 mm
09:20 PM 15.0°F-9.4°C 12.1°F-11.1°C 88% Calm Calm -- 30.37 in1028.4 mb - 0.00 in0.0 mm 0.01 in0.3 mm
09:30 PM 15.2°F-9.3°C 12.3°F-10.9°C 88% Calm Calm -- 30.37 in1028.4 mb - 0.00 in0.0 mm 0.01 in0.3 mm
09:40 PM 15.5°F-9.2°C 12.9°F-10.6°C 89% Calm Calm -- 30.37 in1028.4 mb - 0.00 in0.0 mm 0.01 in0.3 mm
09:50 PM 15.8°F-9.0°C 12.9°F-10.6°C 88% Calm Calm -- 30.37 in1028.4 mb - 0.00 in0.0 mm 0.01 in0.3 mm
10:00 PM 16.1°F-8.8°C 13.4°F-10.3°C 89% Calm Calm -- 30.37 in1028.4 mb - 0.00 in0.0 mm 0.01 in0.3 mm
10:10 PM 16.3°F-8.7°C 13.4°F-10.3°C 88% Calm Calm -- 30.36 in1028.1 mb - 0.00 in0.0 mm 0.01 in0.3 mm
10:20 PM 16.6°F-8.6°C 13.7°F-10.2°C 88% Calm Calm -- 30.37 in1028.4 mb - 0.00 in0.0 mm 0.01 in0.3 mm
10:30 PM 16.7°F-8.5°C 13.8°F-10.1°C 88% Calm Calm -- 30.37 in1028.4 mb - 0.00 in0.0 mm 0.01 in0.3 mm
10:40 PM 16.9°F-8.4°C 13.9°F-10.1°C 88% Calm Calm -- 30.37 in1028.4 mb - 0.00 in0.0 mm 0.01 in0.3 mm
10:50 PM 17.1°F-8.3°C 14.2°F-9.9°C 88% Calm Calm -- 30.38 in1028.8 mb - 0.00 in0.0 mm 0.01 in0.3 mm
11:00 PM 17.1°F-8.3°C 13.9°F-10.1°C 87% Calm Calm -- 30.38 in1028.8 mb - 0.00 in0.0 mm 0.01 in0.3 mm
11:10 PM 17.2°F-8.2°C 14.0°F-10.0°C 87% Calm Calm -- 30.38 in1028.8 mb - 0.00 in0.0 mm 0.01 in0.3 mm
11:20 PM 17.3°F-8.2°C 14.4°F-9.8°C 88% Calm Calm -- 30.38 in1028.8 mb - 0.00 in0.0 mm 0.01 in0.3 mm
11:30 PM 17.5°F-8.1°C 14.6°F-9.7°C 88% Calm Calm -- 30.38 in1028.8 mb - 0.00 in0.0 mm 0.01 in0.3 mm
11:40 PM 17.6°F-8.0°C 14.7°F-9.6°C 88% Calm Calm -- 30.38 in1028.8 mb - 0.00 in0.0 mm 0.01 in0.3 mm
11:50 PM 17.7°F-7.9°C 15.0°F-9.4°C 89% Calm Calm -- 30.37 in1028.4 mb - 0.00 in0.0 mm 0.01 in0.3 mm